Falcon — WBE7134 — position and weather

sailwx.info

Track history (hours):
 
Tides and Currents Weather Stations Pressure Air Temp Water Temp Dewpoint Dewpoint Depression Visibility Wind Speed Wind Dir Waves Ship Positions

Falcon

Owner: Allied Transportation Company, NORFOLK, VA. More information available from US FCC via Universal Licensing System and Coast Guard Vessel Documentation Center.

Last reported at 2016-Sep-27 19:14 UTC. Time now 2016-Oct-01 15:34 UTC.
Position N 25°17' W 080°05'.

Length 37 m; draft 8 m.

Type: Tug. MMSI: 366976720.

Date/timePositionNaut miles runAvg speedWind from/ knotsBaromVisibWave heightAir tempDewpointWater temp
2016-Sep-27 19:14N 25°17' W 080°05'16 3.4
2016-Sep-27 14:33N 25°33' W 080°03'4 4.1
2016-Sep-27 13:33N 25°37' W 080°03'13 4.3
2016-Sep-27 10:33N 25°50' W 080°04'36 3.6
2016-Sep-27 00:33N 26°25' W 080°01'12 3.1
2016-Sep-26 20:33N 26°37' W 079°60'9 0.3
2016-Sep-25 12:33N 26°47' W 080°01'3 2.7
2016-Sep-25 11:33N 26°47' W 079°58'1 0.7
2016-Sep-25 10:33N 26°47' W 079°58'7 6.6
2016-Sep-25 09:33N 26°41' W 079°59'17 8.5
2016-Sep-25 07:34N 26°24' W 079°59'3310.8
2016-Sep-25 04:33N 25°51' W 080°01'  
Track history (hours):
 
Tides and Currents Weather Stations Pressure Air Temp Water Temp Dewpoint Dewpoint Depression Visibility Wind Speed Wind Dir Waves Ship Positions

Falcon

Owner: Allied Transportation Company, NORFOLK, VA. More information available from US FCC via Universal Licensing System and Coast Guard Vessel Documentation Center.

Last reported at 2016-Sep-27 19:14 UTC. Time now 2016-Oct-01 15:34 UTC.
Position N 25°17' W 080°05'.

Length 37 m; draft 8 m.

Type: Tug. MMSI: 366976720.

Date/timePositionNaut miles runAvg speedWind from/ knotsBaromVisibWave heightAir tempDewpointWater temp
2016-Sep-27 19:14N 25°17' W 080°05'16 3.4
2016-Sep-27 14:33N 25°33' W 080°03'4 4.1
2016-Sep-27 13:33N 25°37' W 080°03'13 4.3
2016-Sep-27 10:33N 25°50' W 080°04'36 3.6
2016-Sep-27 00:33N 26°25' W 080°01'12 3.1
2016-Sep-26 20:33N 26°37' W 079°60'9 0.3
2016-Sep-25 12:33N 26°47' W 080°01'3 2.7
2016-Sep-25 11:33N 26°47' W 079°58'1 0.7
2016-Sep-25 10:33N 26°47' W 079°58'7 6.6
2016-Sep-25 09:33N 26°41' W 079°59'17 8.5
2016-Sep-25 07:34N 26°24' W 079°59'3310.8
2016-Sep-25 04:33N 25°51' W 080°01'  

Dump ship's entire track history